sensor_id;sensor_type;location;lat;lon;timestamp;pressure;altitude;pressure_sealevel;temperature;humidity
46081;BME280;31821;51.880;-0.518;2022-12-20T00:00:46;99325.59;;;15.14;65.28
46081;BME280;31821;51.880;-0.518;2022-12-20T00:03:12;99383.88;;;15.89;63.56
46081;BME280;31821;51.880;-0.518;2022-12-20T00:05:39;99403.97;;;15.62;64.82
46081;BME280;31821;51.880;-0.518;2022-12-20T00:08:05;99376.69;;;15.68;64.78
46081;BME280;31821;51.880;-0.518;2022-12-20T00:10:35;99401.34;;;15.89;64.24
46081;BME280;31821;51.880;-0.518;2022-12-20T00:13:01;99376.75;;;15.72;63.94
46081;BME280;31821;51.880;-0.518;2022-12-20T00:15:26;99350.50;;;15.10;65.17
46081;BME280;31821;51.880;-0.518;2022-12-20T00:17:52;99386.91;;;15.25;65.28
46081;BME280;31821;51.880;-0.518;2022-12-20T00:20:17;99406.03;;;15.65;65.48
46081;BME280;31821;51.880;-0.518;2022-12-20T00:22:43;99411.81;;;15.96;64.56
46081;BME280;31821;51.880;-0.518;2022-12-20T00:25:10;99355.81;;;15.78;63.91
46081;BME280;31821;51.880;-0.518;2022-12-20T00:27:35;99339.78;;;15.28;65.38
46081;BME280;31821;51.880;-0.518;2022-12-20T00:30:01;99366.88;;;15.15;66.73
46081;BME280;31821;51.880;-0.518;2022-12-20T00:32:26;99344.59;;;15.12;66.20
46081;BME280;31821;51.880;-0.518;2022-12-20T00:34:52;99392.66;;;15.71;64.94
46081;BME280;31821;51.880;-0.518;2022-12-20T00:37:17;99316.41;;;14.74;67.46
46081;BME280;31821;51.880;-0.518;2022-12-20T00:39:43;99351.28;;;14.91;67.22
46081;BME280;31821;51.880;-0.518;2022-12-20T00:42:08;99384.03;;;14.85;68.78
46081;BME280;31821;51.880;-0.518;2022-12-20T00:44:34;99320.63;;;15.03;66.47
46081;BME280;31821;51.880;-0.518;2022-12-20T00:46:59;99299.56;;;14.83;65.33
46081;BME280;31821;51.880;-0.518;2022-12-20T00:49:25;99325.63;;;14.78;67.16
46081;BME280;31821;51.880;-0.518;2022-12-20T00:51:50;99382.31;;;14.97;66.88
46081;BME280;31821;51.880;-0.518;2022-12-20T00:54:16;99311.13;;;14.53;67.35
46081;BME280;31821;51.880;-0.518;2022-12-20T00:56:41;99343.03;;;14.95;66.55
46081;BME280;31821;51.880;-0.518;2022-12-20T00:59:07;99292.41;;;14.82;66.14
46081;BME280;31821;51.880;-0.518;2022-12-20T01:01:32;99379.19;;;14.98;67.63
46081;BME280;31821;51.880;-0.518;2022-12-20T01:04:02;99372.81;;;15.53;66.20
46081;BME280;31821;51.880;-0.518;2022-12-20T01:06:28;99314.34;;;14.71;67.10
46081;BME280;31821;51.880;-0.518;2022-12-20T01:08:54;99365.63;;;15.13;67.30
46081;BME280;31821;51.880;-0.518;2022-12-20T01:11:26;99342.03;;;15.42;65.79
46081;BME280;31821;51.880;-0.518;2022-12-20T01:13:53;99332.06;;;15.02;66.67
46081;BME280;31821;51.880;-0.518;2022-12-20T01:16:29;99330.25;;;14.58;68.15
46081;BME280;31821;51.880;-0.518;2022-12-20T01:18:55;99360.16;;;15.16;67.65
46081;BME280;31821;51.880;-0.518;2022-12-20T01:21:23;99365.28;;;15.34;66.67
46081;BME280;31821;51.880;-0.518;2022-12-20T01:23:49;99379.91;;;15.50;65.90
46081;BME280;31821;51.880;-0.518;2022-12-20T01:26:17;99307.44;;;14.81;67.11
46081;BME280;31821;51.880;-0.518;2022-12-20T01:28:44;99316.53;;;14.81;66.62
46081;BME280;31821;51.880;-0.518;2022-12-20T01:31:12;99373.03;;;15.44;66.19
46081;BME280;31821;51.880;-0.518;2022-12-20T01:33:38;99327.66;;;14.81;66.79
46081;BME280;31821;51.880;-0.518;2022-12-20T01:36:07;99387.88;;;15.32;67.72
46081;BME280;31821;51.880;-0.518;2022-12-20T01:38:33;99354.69;;;15.40;66.29
46081;BME280;31821;51.880;-0.518;2022-12-20T01:41:00;99393.38;;;15.48;66.27
46081;BME280;31821;51.880;-0.518;2022-12-20T01:43:45;99343.34;;;15.09;66.54
46081;BME280;31821;51.880;-0.518;2022-12-20T01:46:11;99376.03;;;15.55;65.68
46081;BME280;31821;51.880;-0.518;2022-12-20T01:48:36;99342.47;;;15.25;66.61
46081;BME280;31821;51.880;-0.518;2022-12-20T01:51:03;99334.66;;;15.30;66.39
46081;BME280;31821;51.880;-0.518;2022-12-20T01:53:29;99327.56;;;15.52;66.54
46081;BME280;31821;51.880;-0.518;2022-12-20T01:55:59;99283.50;;;14.92;66.26
46081;BME280;31821;51.880;-0.518;2022-12-20T01:58:26;99295.25;;;15.44;65.97
46081;BME280;31821;51.880;-0.518;2022-12-20T02:00:51;99319.88;;;15.26;65.71
46081;BME280;31821;51.880;-0.518;2022-12-20T02:03:17;99297.41;;;15.31;66.18
46081;BME280;31821;51.880;-0.518;2022-12-20T02:05:44;99362.66;;;15.41;66.76
46081;BME280;31821;51.880;-0.518;2022-12-20T02:08:12;99313.22;;;15.11;66.59
46081;BME280;31821;51.880;-0.518;2022-12-20T02:11:14;99359.78;;;15.57;65.60
46081;BME280;31821;51.880;-0.518;2022-12-20T02:16:27;99311.16;;;15.87;64.49
46081;BME280;31821;51.880;-0.518;2022-12-20T02:19:00;99297.56;;;15.62;64.99
46081;BME280;31821;51.880;-0.518;2022-12-20T02:21:50;99317.84;;;15.43;65.46
46081;BME280;31821;51.880;-0.518;2022-12-20T02:27:32;99340.84;;;15.63;65.45
46081;BME280;31821;51.880;-0.518;2022-12-20T02:30:15;99323.09;;;15.87;65.58
46081;BME280;31821;51.880;-0.518;2022-12-20T02:33:02;99325.88;;;15.87;65.18
46081;BME280;31821;51.880;-0.518;2022-12-20T02:35:32;99310.25;;;15.20;65.94
46081;BME280;31821;51.880;-0.518;2022-12-20T02:38:00;99335.88;;;15.72;65.31
46081;BME280;31821;51.880;-0.518;2022-12-20T02:40:35;99246.31;;;15.36;65.28
46081;BME280;31821;51.880;-0.518;2022-12-20T02:43:04;99334.22;;;15.48;66.14
46081;BME280;31821;51.880;-0.518;2022-12-20T02:45:51;99263.47;;;15.42;65.97
46081;BME280;31821;51.880;-0.518;2022-12-20T02:48:18;99272.59;;;14.83;67.07
46081;BME280;31821;51.880;-0.518;2022-12-20T02:50:48;99219.81;;;15.19;65.28
46081;BME280;31821;51.880;-0.518;2022-12-20T02:53:16;99254.22;;;14.95;67.27
46081;BME280;31821;51.880;-0.518;2022-12-20T02:55:51;99232.81;;;15.15;66.84
46081;BME280;31821;51.880;-0.518;2022-12-20T02:58:31;99295.41;;;15.51;65.75
46081;BME280;31821;51.880;-0.518;2022-12-20T03:01:00;99310.19;;;15.16;67.41
46081;BME280;31821;51.880;-0.518;2022-12-20T03:03:32;99259.13;;;15.01;67.30
46081;BME280;31821;51.880;-0.518;2022-12-20T03:05:59;99240.25;;;14.91;67.33
46081;BME280;31821;51.880;-0.518;2022-12-20T03:08:25;99286.63;;;15.69;66.23
46081;BME280;31821;51.880;-0.518;2022-12-20T03:10:52;99242.09;;;15.65;65.45
46081;BME280;31821;51.880;-0.518;2022-12-20T03:13:19;99159.19;;;15.01;65.86
46081;BME280;31821;51.880;-0.518;2022-12-20T03:15:44;99205.63;;;15.24;65.26
46081;BME280;31821;51.880;-0.518;2022-12-20T03:18:10;99219.00;;;15.18;66.35
46081;BME280;31821;51.880;-0.518;2022-12-20T03:20:36;99253.00;;;15.55;65.78
46081;BME280;31821;51.880;-0.518;2022-12-20T03:23:01;99237.13;;;15.12;67.21
46081;BME280;31821;51.880;-0.518;2022-12-20T03:25:27;99210.16;;;15.13;66.15
46081;BME280;31821;51.880;-0.518;2022-12-20T03:27:52;99188.47;;;15.18;66.52
46081;BME280;31821;51.880;-0.518;2022-12-20T03:30:18;99267.03;;;15.42;67.36
46081;BME280;31821;51.880;-0.518;2022-12-20T03:32:44;99268.41;;;15.29;67.92
46081;BME280;31821;51.880;-0.518;2022-12-20T03:35:09;99188.63;;;15.06;66.65
46081;BME280;31821;51.880;-0.518;2022-12-20T03:37:35;99153.88;;;14.73;68.20
46081;BME280;31821;51.880;-0.518;2022-12-20T03:40:00;99221.47;;;15.24;66.99
46081;BME280;31821;51.880;-0.518;2022-12-20T03:42:26;99254.00;;;15.66;67.01
46081;BME280;31821;51.880;-0.518;2022-12-20T03:44:52;99205.97;;;14.64;69.42
46081;BME280;31821;51.880;-0.518;2022-12-20T03:47:17;99220.03;;;15.10;68.34
46081;BME280;31821;51.880;-0.518;2022-12-20T03:49:43;99230.91;;;15.19;68.68
46081;BME280;31821;51.880;-0.518;2022-12-20T03:52:12;99235.03;;;15.05;69.19
46081;BME280;31821;51.880;-0.518;2022-12-20T03:54:37;99218.72;;;15.04;69.10
46081;BME280;31821;51.880;-0.518;2022-12-20T03:57:03;99177.72;;;15.17;67.75
46081;BME280;31821;51.880;-0.518;2022-12-20T03:59:29;99189.84;;;15.09;68.56
46081;BME280;31821;51.880;-0.518;2022-12-20T04:01:54;99143.59;;;14.93;67.84
46081;BME280;31821;51.880;-0.518;2022-12-20T04:04:20;99230.75;;;15.31;68.52
46081;BME280;31821;51.880;-0.518;2022-12-20T04:06:45;99144.50;;;14.42;70.44
46081;BME280;31821;51.880;-0.518;2022-12-20T04:09:13;99234.00;;;15.14;69.54
46081;BME280;31821;51.880;-0.518;2022-12-20T04:11:38;99214.41;;;15.06;69.09
46081;BME280;31821;51.880;-0.518;2022-12-20T04:14:04;99176.25;;;14.80;68.50
46081;BME280;31821;51.880;-0.518;2022-12-20T04:16:30;99216.75;;;15.04;68.86
46081;BME280;31821;51.880;-0.518;2022-12-20T04:18:56;99215.44;;;14.63;71.45
46081;BME280;31821;51.880;-0.518;2022-12-20T04:21:30;99189.03;;;14.49;69.74
46081;BME280;31821;51.880;-0.518;2022-12-20T04:23:56;99209.19;;;14.66;71.04
46081;BME280;31821;51.880;-0.518;2022-12-20T04:26:22;99193.25;;;14.43;71.31
46081;BME280;31821;51.880;-0.518;2022-12-20T04:28:48;99203.91;;;14.60;69.88
46081;BME280;31821;51.880;-0.518;2022-12-20T04:31:13;99208.75;;;15.22;68.62
46081;BME280;31821;51.880;-0.518;2022-12-20T04:33:39;99129.28;;;14.71;68.36
46081;BME280;31821;51.880;-0.518;2022-12-20T04:36:05;99161.97;;;14.62;69.31
46081;BME280;31821;51.880;-0.518;2022-12-20T04:38:31;99193.72;;;14.65;70.10
46081;BME280;31821;51.880;-0.518;2022-12-20T04:40:57;99224.13;;;14.77;71.15
46081;BME280;31821;51.880;-0.518;2022-12-20T04:43:23;99136.44;;;14.72;68.54
46081;BME280;31821;51.880;-0.518;2022-12-20T04:45:50;99207.34;;;14.89;70.03
46081;BME280;31821;51.880;-0.518;2022-12-20T04:48:18;99149.50;;;14.36;69.20
46081;BME280;31821;51.880;-0.518;2022-12-20T04:50:47;99148.84;;;14.79;68.48
46081;BME280;31821;51.880;-0.518;2022-12-20T04:53:14;99168.16;;;14.55;69.53
46081;BME280;31821;51.880;-0.518;2022-12-20T04:55:58;99223.34;;;15.16;69.14
46081;BME280;31821;51.880;-0.518;2022-12-20T04:58:24;99217.41;;;14.78;69.84
46081;BME280;31821;51.880;-0.518;2022-12-20T05:00:50;99218.19;;;14.79;69.61
46081;BME280;31821;51.880;-0.518;2022-12-20T05:03:20;99199.44;;;14.72;69.59
46081;BME280;31821;51.880;-0.518;2022-12-20T05:05:45;99217.94;;;14.84;68.36
46081;BME280;31821;51.880;-0.518;2022-12-20T05:08:11;99154.97;;;14.68;69.30
46081;BME280;31821;51.880;-0.518;2022-12-20T05:10:36;99184.59;;;14.64;69.85
46081;BME280;31821;51.880;-0.518;2022-12-20T05:13:02;99226.81;;;15.32;67.75
46081;BME280;31821;51.880;-0.518;2022-12-20T05:15:28;99135.75;;;14.99;67.94
46081;BME280;31821;51.880;-0.518;2022-12-20T05:17:53;99157.97;;;14.99;68.20
46081;BME280;31821;51.880;-0.518;2022-12-20T05:20:28;99180.09;;;15.38;66.72
46081;BME280;31821;51.880;-0.518;2022-12-20T05:22:54;99176.34;;;15.07;67.37
46081;BME280;31821;51.880;-0.518;2022-12-20T05:25:42;99203.53;;;15.41;66.43
46081;BME280;31821;51.880;-0.518;2022-12-20T05:28:27;99270.28;;;15.67;66.50
46081;BME280;31821;51.880;-0.518;2022-12-20T05:30:53;99250.78;;;15.64;65.52
46081;BME280;31821;51.880;-0.518;2022-12-20T05:33:18;99228.97;;;15.86;64.38
46081;BME280;31821;51.880;-0.518;2022-12-20T05:35:44;99274.81;;;15.95;63.87
46081;BME280;31821;51.880;-0.518;2022-12-20T05:38:09;99274.28;;;15.66;65.57
46081;BME280;31821;51.880;-0.518;2022-12-20T05:40:35;99303.91;;;15.82;64.94
46081;BME280;31821;51.880;-0.518;2022-12-20T05:43:01;99319.22;;;15.13;62.99
46081;BME280;31821;51.880;-0.518;2022-12-20T05:45:29;99331.94;;;15.73;60.53
46081;BME280;31821;51.880;-0.518;2022-12-20T05:47:54;99326.91;;;15.20;59.17
46081;BME280;31821;51.880;-0.518;2022-12-20T05:50:20;99377.91;;;15.12;59.38
46081;BME280;31821;51.880;-0.518;2022-12-20T05:52:46;99390.56;;;15.29;58.40
46081;BME280;31821;51.880;-0.518;2022-12-20T05:55:12;99366.28;;;15.06;57.98
46081;BME280;31821;51.880;-0.518;2022-12-20T05:57:38;99368.22;;;14.54;58.40
46081;BME280;31821;51.880;-0.518;2022-12-20T06:00:04;99365.53;;;14.25;60.14
46081;BME280;31821;51.880;-0.518;2022-12-20T06:02:30;99342.81;;;14.36;58.83
46081;BME280;31821;51.880;-0.518;2022-12-20T06:04:55;99371.00;;;14.54;59.80
46081;BME280;31821;51.880;-0.518;2022-12-20T06:07:22;99412.50;;;14.82;58.79
46081;BME280;31821;51.880;-0.518;2022-12-20T06:09:48;99423.94;;;14.33;60.59
46081;BME280;31821;51.880;-0.518;2022-12-20T06:12:13;99337.59;;;13.86;60.14
46081;BME280;31821;51.880;-0.518;2022-12-20T06:14:39;99352.91;;;14.12;60.31
46081;BME280;31821;51.880;-0.518;2022-12-20T06:17:04;99427.78;;;14.44;59.78
46081;BME280;31821;51.880;-0.518;2022-12-20T06:19:30;99448.44;;;14.31;59.90
46081;BME280;31821;51.880;-0.518;2022-12-20T06:21:55;99412.34;;;14.14;60.41
46081;BME280;31821;51.880;-0.518;2022-12-20T06:24:21;99444.72;;;14.55;59.52
46081;BME280;31821;51.880;-0.518;2022-12-20T06:26:50;99440.88;;;14.75;57.87
46081;BME280;31821;51.880;-0.518;2022-12-20T06:29:16;99352.00;;;13.92;58.72
46081;BME280;31821;51.880;-0.518;2022-12-20T06:31:42;99446.97;;;14.81;58.03
46081;BME280;31821;51.880;-0.518;2022-12-20T06:34:08;99414.00;;;14.64;57.99
46081;BME280;31821;51.880;-0.518;2022-12-20T06:36:34;99373.47;;;14.43;57.82
46081;BME280;31821;51.880;-0.518;2022-12-20T06:39:00;99464.81;;;14.80;57.80
46081;BME280;31821;51.880;-0.518;2022-12-20T06:41:26;99447.38;;;14.51;58.15
46081;BME280;31821;51.880;-0.518;2022-12-20T06:43:51;99383.44;;;13.84;59.12
46081;BME280;31821;51.880;-0.518;2022-12-20T06:46:17;99453.91;;;13.98;59.23
46081;BME280;31821;51.880;-0.518;2022-12-20T06:48:42;99433.50;;;13.62;58.76
46081;BME280;31821;51.880;-0.518;2022-12-20T06:51:08;99446.53;;;13.90;59.02
46081;BME280;31821;51.880;-0.518;2022-12-20T06:53:33;99487.94;;;14.11;59.11
46081;BME280;31821;51.880;-0.518;2022-12-20T06:55:59;99394.47;;;13.14;60.36
46081;BME280;31821;51.880;-0.518;2022-12-20T06:58:24;99415.44;;;13.15;60.10
46081;BME280;31821;51.880;-0.518;2022-12-20T07:00:50;99516.25;;;13.51;60.34
46081;BME280;31821;51.880;-0.518;2022-12-20T07:03:16;99475.19;;;13.29;59.96
46081;BME280;31821;51.880;-0.518;2022-12-20T07:05:41;99518.34;;;13.42;60.38
46081;BME280;31821;51.880;-0.518;2022-12-20T07:08:07;99476.00;;;13.04;61.68
46081;BME280;31821;51.880;-0.518;2022-12-20T07:10:34;99458.72;;;12.95;60.83
46081;BME280;31821;51.880;-0.518;2022-12-20T07:13:00;99550.81;;;13.33;61.11
46081;BME280;31821;51.880;-0.518;2022-12-20T07:15:25;99522.47;;;13.24;60.02
46081;BME280;31821;51.880;-0.518;2022-12-20T07:17:51;99532.84;;;13.27;61.20
46081;BME280;31821;51.880;-0.518;2022-12-20T07:20:17;99537.34;;;13.31;60.58
46081;BME280;31821;51.880;-0.518;2022-12-20T07:22:43;99509.31;;;13.08;61.07
46081;BME280;31821;51.880;-0.518;2022-12-20T07:25:09;99517.63;;;13.08;60.66
46081;BME280;31821;51.880;-0.518;2022-12-20T07:27:35;99562.84;;;13.37;61.46
46081;BME280;31821;51.880;-0.518;2022-12-20T07:30:01;99496.88;;;12.89;61.12
46081;BME280;31821;51.880;-0.518;2022-12-20T07:32:26;99575.53;;;13.38;61.04
46081;BME280;31821;51.880;-0.518;2022-12-20T07:34:54;99490.16;;;12.78;61.71
46081;BME280;31821;51.880;-0.518;2022-12-20T07:37:20;99541.47;;;13.00;61.19
46081;BME280;31821;51.880;-0.518;2022-12-20T07:39:45;99539.72;;;12.83;62.60
46081;BME280;31821;51.880;-0.518;2022-12-20T07:42:11;99582.09;;;13.21;61.73
46081;BME280;31821;51.880;-0.518;2022-12-20T07:44:36;99601.13;;;13.35;61.04
46081;BME280;31821;51.880;-0.518;2022-12-20T07:47:02;99576.31;;;13.14;61.72
46081;BME280;31821;51.880;-0.518;2022-12-20T07:49:27;99602.22;;;12.97;62.12
46081;BME280;31821;51.880;-0.518;2022-12-20T07:51:56;99582.88;;;12.97;62.02
46081;BME280;31821;51.880;-0.518;2022-12-20T07:54:29;99586.03;;;12.74;61.96
46081;BME280;31821;51.880;-0.518;2022-12-20T07:56:57;99600.56;;;12.83;62.40
46081;BME280;31821;51.880;-0.518;2022-12-20T07:59:37;99577.91;;;12.23;63.63
46081;BME280;31821;51.880;-0.518;2022-12-20T08:02:05;99609.41;;;12.64;62.96
46081;BME280;31821;51.880;-0.518;2022-12-20T08:04:32;99619.47;;;12.48;63.83
46081;BME280;31821;51.880;-0.518;2022-12-20T08:06:59;99612.00;;;12.48;64.55
46081;BME280;31821;51.880;-0.518;2022-12-20T08:09:28;99629.47;;;12.40;63.44
46081;BME280;31821;51.880;-0.518;2022-12-20T08:11:56;99600.22;;;12.39;63.03
46081;BME280;31821;51.880;-0.518;2022-12-20T08:14:22;99643.34;;;12.31;63.65
46081;BME280;31821;51.880;-0.518;2022-12-20T08:16:48;99641.38;;;12.53;62.78
46081;BME280;31821;51.880;-0.518;2022-12-20T08:19:13;99603.28;;;11.95;64.37
46081;BME280;31821;51.880;-0.518;2022-12-20T08:21:39;99630.19;;;12.28;63.36
46081;BME280;31821;51.880;-0.518;2022-12-20T08:24:05;99648.88;;;12.10;62.98
46081;BME280;31821;51.880;-0.518;2022-12-20T08:26:30;99637.28;;;12.17;62.79
46081;BME280;31821;51.880;-0.518;2022-12-20T08:28:56;99675.91;;;12.25;62.74
46081;BME280;31821;51.880;-0.518;2022-12-20T08:31:22;99640.47;;;11.68;64.35
46081;BME280;31821;51.880;-0.518;2022-12-20T08:33:47;99657.44;;;11.87;63.10
46081;BME280;31821;51.880;-0.518;2022-12-20T08:36:13;99666.59;;;11.79;62.42
46081;BME280;31821;51.880;-0.518;2022-12-20T08:38:39;99682.53;;;11.73;62.50
46081;BME280;31821;51.880;-0.518;2022-12-20T08:41:10;99666.56;;;11.49;62.05
46081;BME280;31821;51.880;-0.518;2022-12-20T08:43:37;99745.97;;;12.00;62.47
46081;BME280;31821;51.880;-0.518;2022-12-20T08:46:04;99724.81;;;12.04;61.58
46081;BME280;31821;51.880;-0.518;2022-12-20T08:48:31;99729.25;;;11.87;61.77
46081;BME280;31821;51.880;-0.518;2022-12-20T08:51:08;99741.94;;;11.79;61.68
46081;BME280;31821;51.880;-0.518;2022-12-20T08:53:35;99748.03;;;12.03;62.47
46081;BME280;31821;51.880;-0.518;2022-12-20T08:56:09;99699.88;;;11.35;63.10
46081;BME280;31821;51.880;-0.518;2022-12-20T08:58:36;99713.78;;;11.56;61.51
46081;BME280;31821;51.880;-0.518;2022-12-20T09:01:04;99762.56;;;11.82;61.38
46081;BME280;31821;51.880;-0.518;2022-12-20T09:03:31;99730.06;;;11.31;61.46
46081;BME280;31821;51.880;-0.518;2022-12-20T09:05:58;99701.53;;;11.10;61.73
46081;BME280;31821;51.880;-0.518;2022-12-20T09:08:24;99723.81;;;11.61;61.61
46081;BME280;31821;51.880;-0.518;2022-12-20T09:10:49;99705.00;;;11.93;60.63
46081;BME280;31821;51.880;-0.518;2022-12-20T09:13:15;99734.97;;;12.42;60.29
46081;BME280;31821;51.880;-0.518;2022-12-20T09:15:41;99629.75;;;11.96;58.33
46081;BME280;31821;51.880;-0.518;2022-12-20T09:18:07;99720.84;;;12.86;57.01
46081;BME280;31821;51.880;-0.518;2022-12-20T09:20:33;99701.53;;;13.44;57.06
46081;BME280;31821;51.880;-0.518;2022-12-20T09:22:59;99765.91;;;14.24;54.09
46081;BME280;31821;51.880;-0.518;2022-12-20T09:25:26;99722.91;;;14.31;53.50
46081;BME280;31821;51.880;-0.518;2022-12-20T09:27:53;99753.41;;;14.68;53.76
46081;BME280;31821;51.880;-0.518;2022-12-20T09:30:21;99671.44;;;14.58;52.60
46081;BME280;31821;51.880;-0.518;2022-12-20T09:32:47;99764.53;;;15.53;50.79
46081;BME280;31821;51.880;-0.518;2022-12-20T09:35:12;99710.28;;;15.43;49.36
46081;BME280;31821;51.880;-0.518;2022-12-20T09:37:38;99702.63;;;15.84;50.80
46081;BME280;31821;51.880;-0.518;2022-12-20T09:40:04;99765.03;;;16.55;49.47
46081;BME280;31821;51.880;-0.518;2022-12-20T09:42:30;99761.16;;;16.59;48.46
46081;BME280;31821;51.880;-0.518;2022-12-20T09:45:05;99735.34;;;16.79;46.39
46081;BME280;31821;51.880;-0.518;2022-12-20T09:47:33;99740.56;;;17.00;46.51
46081;BME280;31821;51.880;-0.518;2022-12-20T09:49:59;99755.72;;;17.42;46.11
46081;BME280;31821;51.880;-0.518;2022-12-20T09:55:33;99712.47;;;17.28;46.14
46081;BME280;31821;51.880;-0.518;2022-12-20T10:00:48;99744.88;;;17.17;45.71
46081;BME280;31821;51.880;-0.518;2022-12-20T10:03:34;99777.44;;;17.32;44.59
46081;BME280;31821;51.880;-0.518;2022-12-20T10:06:09;99761.97;;;17.58;46.38
46081;BME280;31821;51.880;-0.518;2022-12-20T10:08:55;99789.91;;;17.62;44.82
46081;BME280;31821;51.880;-0.518;2022-12-20T10:11:43;99778.59;;;17.74;44.50
46081;BME280;31821;51.880;-0.518;2022-12-20T10:16:57;99780.28;;;17.79;42.93
46081;BME280;31821;51.880;-0.518;2022-12-20T10:22:29;99788.69;;;17.59;44.18
46081;BME280;31821;51.880;-0.518;2022-12-20T10:27:45;99788.84;;;17.27;44.73
46081;BME280;31821;51.880;-0.518;2022-12-20T10:30:16;99752.19;;;17.45;44.31
46081;BME280;31821;51.880;-0.518;2022-12-20T10:32:45;99778.31;;;17.79;44.73
46081;BME280;31821;51.880;-0.518;2022-12-20T10:37:56;99747.59;;;17.13;44.57
46081;BME280;31821;51.880;-0.518;2022-12-20T10:40:26;99788.56;;;17.32;44.89
46081;BME280;31821;51.880;-0.518;2022-12-20T10:42:52;99735.34;;;17.18;44.33
46081;BME280;31821;51.880;-0.518;2022-12-20T10:47:44;99788.06;;;17.93;43.80
46081;BME280;31821;51.880;-0.518;2022-12-20T10:50:16;99807.84;;;17.84;43.07
46081;BME280;31821;51.880;-0.518;2022-12-20T10:52:43;99791.31;;;18.18;43.07
46081;BME280;31821;51.880;-0.518;2022-12-20T10:55:33;99803.09;;;18.31;43.14
46081;BME280;31821;51.880;-0.518;2022-12-20T11:00:52;99793.59;;;18.36;42.74
46081;BME280;31821;51.880;-0.518;2022-12-20T11:03:27;99804.47;;;18.18;41.57
46081;BME280;31821;51.880;-0.518;2022-12-20T11:05:57;99785.53;;;18.57;42.36
46081;BME280;31821;51.880;-0.518;2022-12-20T11:08:24;99793.22;;;18.64;42.94
46081;BME280;31821;51.880;-0.518;2022-12-20T11:11:10;99761.69;;;18.10;41.26
46081;BME280;31821;51.880;-0.518;2022-12-20T11:13:37;99760.47;;;17.84;42.17
46081;BME280;31821;51.880;-0.518;2022-12-20T11:16:03;99755.09;;;18.22;42.05
46081;BME280;31821;51.880;-0.518;2022-12-20T11:18:37;99797.84;;;18.80;40.65
46081;BME280;31821;51.880;-0.518;2022-12-20T11:21:26;99812.13;;;19.01;40.55
46081;BME280;31821;51.880;-0.518;2022-12-20T11:24:01;99747.66;;;18.87;40.78
46081;BME280;31821;51.880;-0.518;2022-12-20T11:37:22;99794.31;;;18.06;41.73
46081;BME280;31821;51.880;-0.518;2022-12-20T11:40:15;99803.06;;;17.61;43.08
46081;BME280;31821;51.880;-0.518;2022-12-20T11:46:02;99748.63;;;18.14;41.91
46081;BME280;31821;51.880;-0.518;2022-12-20T11:51:16;99803.47;;;18.83;40.48
46081;BME280;31821;51.880;-0.518;2022-12-20T11:54:02;99802.28;;;18.57;41.62
46081;BME280;31821;51.880;-0.518;2022-12-20T11:56:39;99765.81;;;18.16;41.81
46081;BME280;31821;51.880;-0.518;2022-12-20T12:02:10;99812.06;;;18.44;40.26
46081;BME280;31821;51.880;-0.518;2022-12-20T12:05:02;99791.06;;;18.27;41.66
46081;BME280;31821;51.880;-0.518;2022-12-20T12:07:30;99800.16;;;18.74;41.33
46081;BME280;31821;51.880;-0.518;2022-12-20T12:10:05;99746.03;;;18.02;41.33
46081;BME280;31821;51.880;-0.518;2022-12-20T12:12:45;99791.25;;;18.65;39.90
46081;BME280;31821;51.880;-0.518;2022-12-20T12:18:04;99787.03;;;18.01;41.39
46081;BME280;31821;51.880;-0.518;2022-12-20T12:25:47;99787.81;;;17.98;42.52
46081;BME280;31821;51.880;-0.518;2022-12-20T12:28:13;99718.88;;;17.52;42.47
46081;BME280;31821;51.880;-0.518;2022-12-20T12:30:43;99767.00;;;17.72;41.78
46081;BME280;31821;51.880;-0.518;2022-12-20T12:33:15;99768.81;;;17.41;42.02
46081;BME280;31821;51.880;-0.518;2022-12-20T12:38:32;99783.25;;;17.90;42.77
46081;BME280;31821;51.880;-0.518;2022-12-20T12:43:58;99726.41;;;17.28;42.01
46081;BME280;31821;51.880;-0.518;2022-12-20T12:46:33;99720.09;;;17.31;42.43
46081;BME280;31821;51.880;-0.518;2022-12-20T12:49:17;99752.78;;;17.54;41.61
46081;BME280;31821;51.880;-0.518;2022-12-20T12:51:54;99777.47;;;17.56;42.15
46081;BME280;31821;51.880;-0.518;2022-12-20T12:56:49;99780.75;;;17.84;42.58
46081;BME280;31821;51.880;-0.518;2022-12-20T12:59:26;99753.13;;;17.76;42.09
46081;BME280;31821;51.880;-0.518;2022-12-20T13:02:33;99777.81;;;17.97;42.19
46081;BME280;31821;51.880;-0.518;2022-12-20T13:07:45;99773.00;;;17.51;43.63
46081;BME280;31821;51.880;-0.518;2022-12-20T13:17:59;99805.44;;;16.84;43.77
46081;BME280;31821;51.880;-0.518;2022-12-20T13:20:30;99758.78;;;15.78;45.90
46081;BME280;31821;51.880;-0.518;2022-12-20T13:25:45;99795.25;;;15.89;46.25
46081;BME280;31821;51.880;-0.518;2022-12-20T13:30:41;99773.34;;;16.03;45.44
46081;BME280;31821;51.880;-0.518;2022-12-20T13:33:22;99693.53;;;15.56;46.17
46081;BME280;31821;51.880;-0.518;2022-12-20T13:35:59;99765.53;;;15.77;46.51
46081;BME280;31821;51.880;-0.518;2022-12-20T13:41:21;99787.94;;;15.68;47.22
46081;BME280;31821;51.880;-0.518;2022-12-20T13:43:50;99771.97;;;15.81;47.25
46081;BME280;31821;51.880;-0.518;2022-12-20T13:46:24;99790.13;;;15.46;47.41
46081;BME280;31821;51.880;-0.518;2022-12-20T13:48:55;99742.38;;;15.41;48.09
46081;BME280;31821;51.880;-0.518;2022-12-20T13:51:25;99785.75;;;15.45;47.80
46081;BME280;31821;51.880;-0.518;2022-12-20T13:54:00;99680.75;;;14.37;48.09
46081;BME280;31821;51.880;-0.518;2022-12-20T13:58:55;99755.59;;;15.03;49.23
46081;BME280;31821;51.880;-0.518;2022-12-20T14:01:23;99781.66;;;15.27;48.27
46081;BME280;31821;51.880;-0.518;2022-12-20T14:03:51;99794.84;;;15.30;48.16
46081;BME280;31821;51.880;-0.518;2022-12-20T14:06:19;99771.53;;;14.78;49.19
46081;BME280;31821;51.880;-0.518;2022-12-20T14:08:48;99780.44;;;14.71;49.26
46081;BME280;31821;51.880;-0.518;2022-12-20T14:11:22;99800.56;;;14.80;49.47
46081;BME280;31821;51.880;-0.518;2022-12-20T14:13:58;99818.00;;;14.81;49.97
46081;BME280;31821;51.880;-0.518;2022-12-20T14:16:24;99810.06;;;14.67;49.32
46081;BME280;31821;51.880;-0.518;2022-12-20T14:21:21;99754.00;;;14.36;49.29
46081;BME280;31821;51.880;-0.518;2022-12-20T14:23:50;99785.31;;;14.37;50.37
46081;BME280;31821;51.880;-0.518;2022-12-20T14:26:21;99772.41;;;14.28;50.54